createdAt,value
2023-03-02T00:02:39.631Z,72.80
2023-03-02T00:07:36.030Z,72.93
2023-03-02T00:12:30.250Z,73.17
2023-03-02T00:17:27.972Z,73.24
2023-03-02T00:22:20.836Z,73.05
2023-03-02T00:27:13.479Z,73.33
2023-03-02T00:32:06.692Z,73.42
2023-03-02T00:37:00.113Z,73.72
2023-03-02T00:41:52.827Z,73.55
2023-03-02T00:46:46.617Z,73.44
2023-03-02T00:51:39.738Z,73.54
2023-03-02T00:56:32.824Z,73.66
2023-03-02T01:01:26.024Z,73.52
2023-03-02T01:06:22.408Z,73.85
2023-03-02T01:11:20.778Z,73.90
2023-03-02T01:16:13.901Z,73.74
2023-03-02T01:21:12.932Z,73.58
2023-03-02T01:26:07.573Z,74.06
2023-03-02T01:31:01.391Z,73.38
2023-03-02T01:35:54.146Z,73.81
2023-03-02T01:40:46.847Z,73.41
2023-03-02T01:45:49.015Z,73.46
2023-03-02T01:50:46.568Z,74.11
2023-03-02T01:55:40.527Z,74.78
2023-03-02T02:00:38.329Z,76.63
2023-03-02T02:05:31.027Z,77.09
2023-03-02T02:10:23.734Z,77.57
2023-03-02T02:15:19.000Z,77.80
2023-03-02T02:20:29.745Z,77.86
2023-03-02T02:25:45.552Z,77.96
2023-03-02T02:30:41.947Z,78.10
2023-03-02T02:35:38.640Z,78.43
2023-03-02T02:40:55.014Z,78.57
2023-03-02T02:45:55.063Z,78.63
2023-03-02T02:50:48.615Z,78.59
2023-03-02T02:55:43.335Z,79.02
2023-03-02T03:00:37.520Z,79.03
2023-03-02T03:05:30.264Z,79.11
2023-03-02T03:10:23.003Z,79.29
2023-03-02T03:15:15.960Z,79.08
2023-03-02T03:20:10.863Z,79.22
2023-03-02T03:25:08.496Z,79.19
2023-03-02T03:30:01.970Z,79.35
2023-03-02T03:34:55.627Z,79.42
2023-03-02T03:39:52.578Z,79.27
2023-03-02T03:44:45.686Z,79.33
2023-03-02T03:49:38.478Z,79.53
2023-03-02T03:54:31.981Z,79.53
2023-03-02T03:59:27.105Z,79.50
2023-03-02T04:04:34.683Z,79.51
2023-03-02T04:09:37.870Z,79.56
2023-03-02T04:14:31.830Z,79.55
2023-03-02T04:19:25.302Z,79.44
2023-03-02T04:24:23.410Z,79.72
2023-03-02T04:29:19.050Z,79.62
2023-03-02T04:34:13.727Z,79.70
2023-03-02T04:39:09.492Z,79.68
2023-03-02T04:44:02.252Z,79.69
2023-03-02T04:48:55.721Z,79.56
2023-03-02T04:53:48.372Z,79.79
2023-03-02T04:58:41.040Z,79.81
2023-03-02T05:03:34.064Z,79.65
2023-03-02T05:08:26.729Z,79.83
2023-03-02T05:13:19.415Z,79.90
2023-03-02T05:18:13.252Z,80.04
2023-03-02T05:23:09.875Z,80.27
2023-03-02T05:28:04.514Z,80.20
2023-03-02T05:32:57.226Z,80.23
2023-03-02T05:37:50.581Z,80.33
2023-03-02T05:42:43.903Z,80.49
2023-03-02T05:47:38.942Z,80.20
2023-03-02T05:52:41.943Z,80.53
2023-03-02T05:57:35.356Z,80.31
2023-03-02T06:02:28.074Z,80.40
2023-03-02T06:07:20.800Z,80.44
2023-03-02T06:12:13.504Z,80.48
2023-03-02T06:17:06.228Z,80.52
2023-03-02T06:21:59.563Z,80.56
2023-03-02T06:26:55.257Z,80.62
2023-03-02T06:31:48.148Z,80.54
2023-03-02T06:36:40.996Z,80.45
2023-03-02T06:41:34.886Z,80.58
2023-03-02T06:46:27.719Z,80.70
2023-03-02T06:51:20.404Z,80.63
2023-03-02T06:56:13.153Z,80.69
2023-03-02T07:01:07.897Z,80.79
2023-03-02T07:06:01.096Z,80.84
2023-03-02T07:10:53.828Z,80.83
2023-03-02T07:15:46.644Z,80.95
2023-03-02T07:20:39.634Z,80.74
2023-03-02T07:25:32.682Z,80.62
2023-03-02T07:30:26.591Z,80.70
2023-03-02T07:35:19.549Z,80.73
2023-03-02T07:40:13.610Z,80.70
2023-03-02T07:45:07.715Z,80.66
2023-03-02T07:50:00.326Z,80.31
2023-03-02T07:54:53.095Z,80.33
2023-03-02T07:59:46.255Z,80.32
2023-03-02T08:04:38.927Z,80.46
2023-03-02T08:09:31.588Z,80.77
2023-03-02T08:14:24.264Z,80.51
2023-03-02T08:19:16.961Z,80.76
2023-03-02T08:24:10.732Z,80.28
2023-03-02T08:29:03.519Z,80.52
2023-03-02T08:33:56.209Z,79.88
2023-03-02T08:38:50.326Z,80.14
2023-03-02T08:43:43.422Z,80.09
2023-03-02T08:48:36.153Z,79.54
2023-03-02T08:53:31.997Z,79.24
2023-03-02T08:58:24.672Z,79.10
2023-03-02T09:03:17.872Z,79.17
2023-03-02T09:08:10.717Z,79.34
2023-03-02T09:13:03.669Z,79.01
2023-03-02T09:17:56.361Z,78.83
2023-03-02T09:22:51.116Z,78.93
2023-03-02T09:27:43.770Z,78.82
2023-03-02T09:32:36.667Z,78.12
2023-03-02T09:37:32.938Z,78.11
2023-03-02T09:43:23.016Z,78.11
2023-03-02T09:48:32.552Z,77.98
2023-03-02T09:53:25.190Z,77.58
2023-03-02T09:58:21.683Z,77.37
2023-03-02T10:03:20.074Z,77.25
2023-03-02T10:08:16.449Z,77.12
2023-03-02T10:13:29.969Z,76.83
2023-03-02T10:18:29.573Z,76.73
2023-03-02T10:23:34.664Z,77.07
2023-03-02T10:28:34.166Z,76.85
2023-03-02T10:33:28.665Z,77.06
2023-03-02T10:38:26.248Z,76.50
2023-03-02T10:43:21.262Z,76.58
2023-03-02T10:48:15.412Z,76.37
2023-03-02T10:53:09.647Z,76.48
2023-03-02T10:58:21.170Z,76.58
2023-03-02T11:03:24.230Z,76.37
2023-03-02T11:08:31.754Z,76.54
2023-03-02T11:13:29.270Z,76.22
2023-03-02T11:18:26.739Z,76.52
2023-03-02T11:23:36.108Z,76.07
2023-03-02T11:29:07.345Z,76.27
2023-03-02T11:34:35.267Z,76.46
2023-03-02T11:39:46.388Z,76.42
2023-03-02T11:44:46.764Z,76.07
2023-03-02T11:49:45.055Z,75.80
2023-03-02T11:54:45.979Z,75.86
2023-03-02T11:59:39.760Z,76.24
2023-03-02T12:04:35.940Z,76.19
2023-03-02T12:09:36.578Z,76.38
2023-03-02T12:14:42.585Z,76.10
2023-03-02T12:19:45.272Z,76.16
2023-03-02T12:24:43.243Z,75.97
2023-03-02T12:29:46.500Z,75.46
2023-03-02T12:34:45.532Z,75.85
2023-03-02T12:40:35.522Z,75.45
2023-03-02T12:45:43.438Z,75.33
2023-03-02T12:50:40.848Z,74.65
2023-03-02T12:55:34.438Z,74.74
2023-03-02T13:00:30.843Z,74.56
2023-03-02T13:05:35.865Z,74.44
2023-03-02T13:10:37.284Z,74.14
2023-03-02T13:15:30.479Z,74.02
2023-03-02T13:20:25.562Z,73.52
2023-03-02T13:25:28.606Z,73.67
2023-03-02T13:30:30.857Z,73.56
2023-03-02T13:35:27.196Z,73.23
2023-03-02T13:40:22.861Z,73.40
2023-03-02T13:45:30.759Z,73.35
2023-03-02T13:50:25.209Z,73.25
2023-03-02T13:55:19.593Z,73.18
2023-03-02T14:00:16.739Z,72.88
2023-03-02T14:05:21.889Z,72.78
2023-03-02T14:10:17.247Z,72.77
2023-03-02T14:15:15.557Z,72.74
2023-03-02T14:20:12.093Z,72.73
2023-03-02T14:25:04.975Z,72.53
2023-03-02T14:29:58.194Z,72.17
2023-03-02T14:34:50.896Z,72.47
2023-03-02T14:39:54.212Z,72.66
2023-03-02T14:44:49.716Z,72.28
2023-03-02T14:49:42.374Z,72.26
2023-03-02T14:54:45.012Z,72.13
2023-03-02T14:59:37.689Z,72.01
2023-03-02T15:04:30.369Z,71.76
2023-03-02T15:09:23.080Z,71.63
2023-03-02T15:14:15.740Z,71.67
2023-03-02T15:19:09.653Z,71.83
2023-03-02T15:24:02.365Z,71.46
2023-03-02T15:28:55.477Z,71.57
2023-03-02T15:33:48.387Z,71.73
2023-03-02T15:38:41.198Z,71.63
2023-03-02T15:43:34.290Z,71.80
2023-03-02T15:48:27.069Z,71.49
2023-03-02T15:53:19.825Z,71.60
2023-03-02T15:58:12.511Z,71.62
2023-03-02T16:03:05.626Z,71.87
2023-03-02T16:07:58.369Z,71.82
2023-03-02T16:12:51.011Z,72.11
2023-03-02T16:17:43.866Z,72.34
2023-03-02T16:22:36.514Z,72.38
2023-03-02T16:27:30.377Z,72.58
2023-03-02T16:32:23.135Z,72.61
2023-03-02T16:37:15.846Z,72.79
2023-03-02T16:42:08.526Z,72.92
2023-03-02T16:47:01.209Z,73.26
2023-03-02T16:51:58.864Z,73.14
2023-03-02T16:56:51.859Z,73.34
2023-03-02T17:01:44.764Z,73.69
2023-03-02T17:06:38.049Z,73.56
2023-03-02T17:11:32.350Z,73.71
2023-03-02T17:16:26.501Z,73.64
2023-03-02T17:21:19.250Z,73.87
2023-03-02T17:26:12.050Z,74.10
2023-03-02T17:31:04.854Z,74.37
2023-03-02T17:35:57.547Z,74.47
2023-03-02T17:40:50.220Z,74.50
2023-03-02T17:45:42.845Z,74.28
2023-03-02T17:51:11.881Z,74.56
2023-03-02T17:56:04.596Z,74.73
2023-03-02T18:00:57.274Z,74.99
2023-03-02T18:05:50.382Z,75.05
2023-03-02T18:10:43.777Z,75.01
2023-03-02T18:15:36.537Z,74.98
2023-03-02T18:20:29.309Z,75.31
2023-03-02T18:25:22.240Z,75.20
2023-03-02T18:30:15.483Z,75.26
2023-03-02T18:35:09.298Z,75.44
2023-03-02T18:40:02.584Z,75.40
2023-03-02T18:44:55.282Z,75.33
2023-03-02T18:49:47.968Z,75.53
2023-03-02T18:54:42.248Z,75.88
2023-03-02T18:59:36.862Z,76.02
2023-03-02T19:04:30.881Z,75.79
2023-03-02T19:09:24.746Z,75.88
2023-03-02T19:14:17.661Z,75.74
2023-03-02T19:19:10.964Z,76.01
2023-03-02T19:24:03.959Z,75.84
2023-03-02T19:28:56.616Z,75.87
2023-03-02T19:33:49.247Z,76.11
2023-03-02T19:38:44.516Z,75.74
2023-03-02T19:43:38.713Z,75.96
2023-03-02T19:48:32.197Z,76.00
2023-03-02T19:53:25.273Z,76.04
2023-03-02T19:58:19.872Z,75.98
2023-03-02T20:03:13.091Z,75.98
2023-03-02T20:08:07.773Z,75.83
2023-03-02T20:13:00.977Z,76.16
2023-03-02T20:17:53.961Z,76.06
2023-03-02T20:22:46.866Z,76.27
2023-03-02T20:27:39.915Z,76.01
2023-03-02T20:32:32.705Z,76.10
2023-03-02T20:37:26.138Z,76.28
2023-03-02T20:42:18.868Z,76.70
2023-03-02T20:47:15.065Z,76.34
2023-03-02T20:52:10.283Z,76.35
2023-03-02T20:57:05.584Z,76.56
2023-03-02T21:01:59.729Z,76.02
2023-03-02T21:06:53.506Z,76.57
2023-03-02T21:11:47.580Z,76.48
2023-03-02T21:16:43.319Z,76.09
2023-03-02T21:21:42.064Z,76.29
2023-03-02T21:26:36.513Z,76.11
2023-03-02T21:31:29.290Z,76.16
2023-03-02T21:36:25.056Z,76.17
2023-03-02T21:41:18.474Z,76.43
2023-03-02T21:46:15.994Z,76.01
2023-03-02T21:51:09.096Z,76.28
2023-03-02T21:56:01.875Z,76.32
2023-03-02T22:00:54.854Z,76.22
2023-03-02T22:05:49.963Z,76.08
2023-03-02T22:11:10.957Z,76.11
2023-03-02T22:16:44.318Z,76.20
2023-03-02T22:22:00.362Z,76.39
2023-03-02T22:32:55.557Z,76.82
2023-03-02T22:38:12.903Z,76.87
2023-03-02T22:43:32.045Z,76.76
2023-03-02T22:48:33.567Z,76.56
2023-03-02T22:54:00.024Z,76.74
2023-03-02T22:58:53.576Z,76.87
2023-03-02T23:03:48.783Z,76.70
2023-03-02T23:08:41.447Z,76.74
2023-03-02T23:13:42.093Z,76.71
2023-03-02T23:18:34.731Z,76.88
2023-03-02T23:23:29.257Z,76.96
2023-03-02T23:28:22.289Z,77.13
2023-03-02T23:33:15.986Z,77.09
2023-03-02T23:38:09.756Z,77.03
2023-03-02T23:43:24.549Z,77.00
2023-03-02T23:48:34.149Z,77.14
2023-03-02T23:53:51.710Z,76.93
